N216TB KMSY-KPNS
Flight info
| Callsign | N216TB |
|---|---|
| Flight time | 0h 44m |
| Altitude | 11000 |
| Route | DCT GPT DCT SJI DCT LOXLY DCT PENSI DCT WABEN DCT BRENT DCT |
| Aircraft | PC12/L-L/C |
Departure
| Time | 2026-04-29 23:18 |
|---|---|
| Airport | Louis Armstrong New Orleans International Airport (KMSY) |
Arrival
| Time | 2026-04-30 00:02 |
|---|---|
| Airport | Pensacola International Airport (KPNS) |
| Time | Latitude | Longitude | Altitude | Speed | Heading |
|---|---|---|---|---|---|
| 2026-04-29 23:04 | 29.99188 | -90.27223 | 7 ft | 0 kts | 16° |
| 2026-04-29 23:14 | 29.99216 | -90.27197 | 7 ft | 9 kts | 83° |
| 2026-04-29 23:14 | 29.99218 | -90.27180 | 7 ft | 6 kts | 86° |
| 2026-04-29 23:14 | 29.99267 | -90.27134 | 8 ft | 7 kts | 351° |
| 2026-04-29 23:15 | 29.99316 | -90.27126 | 9 ft | 10 kts | 18° |
| 2026-04-29 23:15 | 29.99323 | -90.27123 | 10 ft | 0 kts | 14° |
| 2026-04-29 23:15 | 29.99325 | -90.27123 | 10 ft | 2 kts | 14° |
| 2026-04-29 23:16 | 29.99378 | -90.27103 | 10 ft | 7 kts | 34° |
| 2026-04-29 23:16 | 29.99392 | -90.27043 | 10 ft | 7 kts | 103° |
| 2026-04-29 23:16 | 29.99388 | -90.27028 | 10 ft | 0 kts | 104° |
| 2026-04-29 23:17 | 29.99373 | -90.26975 | 9 ft | 32 kts | 108° |
| 2026-04-29 23:17 | 29.99259 | -90.26482 | 10 ft | 90 kts | 108° |
| 2026-04-29 23:17 | 29.99034 | -90.25686 | 142 ft | 116 kts | 104° |
| 2026-04-29 23:17 | 29.98901 | -90.24704 | 378 ft | 128 kts | 105° |
| 2026-04-29 23:18 | 29.98780 | -90.23714 | 767 ft | 124 kts | 97° |
| 2026-04-29 23:18 | 29.99222 | -90.22859 | 1163 ft | 135 kts | 39° |
| 2026-04-29 23:18 | 30.00075 | -90.22354 | 1622 ft | 147 kts | 32° |
| 2026-04-29 23:18 | 30.00852 | -90.21533 | 2126 ft | 159 kts | 65° |
| 2026-04-29 23:19 | 30.01323 | -90.20305 | 2656 ft | 178 kts | 72° |
| 2026-04-29 23:19 | 30.01809 | -90.18915 | 3183 ft | 194 kts | 72° |
| 2026-04-29 23:19 | 30.02339 | -90.17423 | 3704 ft | 206 kts | 72° |
| 2026-04-29 23:19 | 30.02894 | -90.15864 | 4216 ft | 214 kts | 71° |
| 2026-04-29 23:20 | 30.03467 | -90.14249 | 4748 ft | 220 kts | 71° |
| 2026-04-29 23:20 | 30.04051 | -90.12601 | 5234 ft | 224 kts | 71° |
| 2026-04-29 23:20 | 30.04640 | -90.10945 | 5716 ft | 228 kts | 70° |
| 2026-04-29 23:20 | 30.05246 | -90.09234 | 6208 ft | 232 kts | 70° |
| 2026-04-29 23:21 | 30.05861 | -90.07496 | 6683 ft | 236 kts | 69° |
| 2026-04-29 23:21 | 30.06485 | -90.05731 | 7146 ft | 238 kts | 69° |
| 2026-04-29 23:21 | 30.07112 | -90.03959 | 7618 ft | 239 kts | 68° |
| 2026-04-29 23:21 | 30.07740 | -90.02185 | 8094 ft | 240 kts | 68° |
| 2026-04-29 23:22 | 30.08371 | -90.00396 | 8582 ft | 241 kts | 68° |
| 2026-04-29 23:22 | 30.09008 | -89.98593 | 9073 ft | 243 kts | 67° |
| 2026-04-29 23:22 | 30.09639 | -89.96806 | 9565 ft | 245 kts | 66° |
| 2026-04-29 23:22 | 30.10284 | -89.94980 | 10048 ft | 248 kts | 66° |
| 2026-04-29 23:23 | 30.10938 | -89.93122 | 10507 ft | 249 kts | 66° |
| 2026-04-29 23:23 | 30.11596 | -89.91253 | 10905 ft | 255 kts | 66° |
| 2026-04-29 23:23 | 30.12283 | -89.89307 | 11014 ft | 269 kts | 66° |
| 2026-04-29 23:23 | 30.13000 | -89.87271 | 11028 ft | 277 kts | 67° |
| 2026-04-29 23:24 | 30.13730 | -89.85187 | 11026 ft | 282 kts | 66° |
| 2026-04-29 23:24 | 30.14460 | -89.83109 | 11023 ft | 284 kts | 66° |
| 2026-04-29 23:24 | 30.15203 | -89.80999 | 11015 ft | 285 kts | 66° |
| 2026-04-29 23:24 | 30.15947 | -89.78879 | 11015 ft | 285 kts | 66° |
| 2026-04-29 23:25 | 30.16690 | -89.76759 | 11015 ft | 284 kts | 67° |
| 2026-04-29 23:25 | 30.17431 | -89.74648 | 11013 ft | 284 kts | 66° |
| 2026-04-29 23:25 | 30.18171 | -89.72537 | 11012 ft | 284 kts | 67° |
| 2026-04-29 23:25 | 30.18912 | -89.70422 | 11010 ft | 284 kts | 67° |
| 2026-04-29 23:26 | 30.19654 | -89.68301 | 11013 ft | 285 kts | 67° |
| 2026-04-29 23:26 | 30.20386 | -89.66210 | 11018 ft | 284 kts | 67° |
| 2026-04-29 23:26 | 30.21126 | -89.64091 | 11016 ft | 285 kts | 67° |
| 2026-04-29 23:26 | 30.21869 | -89.61965 | 11018 ft | 285 kts | 67° |
| 2026-04-29 23:27 | 30.22608 | -89.59849 | 11025 ft | 284 kts | 67° |
| 2026-04-29 23:27 | 30.23350 | -89.57724 | 11021 ft | 284 kts | 67° |
| 2026-04-29 23:27 | 30.24088 | -89.55608 | 11022 ft | 284 kts | 67° |
| 2026-04-29 23:27 | 30.24826 | -89.53489 | 11025 ft | 284 kts | 67° |
| 2026-04-29 23:28 | 30.25567 | -89.51364 | 11021 ft | 284 kts | 67° |
| 2026-04-29 23:28 | 30.26304 | -89.49247 | 11024 ft | 284 kts | 67° |
| 2026-04-29 23:28 | 30.27031 | -89.47156 | 11026 ft | 284 kts | 67° |
| 2026-04-29 23:28 | 30.27768 | -89.45037 | 11025 ft | 284 kts | 67° |
| 2026-04-29 23:29 | 30.28506 | -89.42913 | 11027 ft | 284 kts | 67° |
| 2026-04-29 23:29 | 30.29244 | -89.40790 | 11026 ft | 284 kts | 67° |
| 2026-04-29 23:29 | 30.29981 | -89.38665 | 11028 ft | 284 kts | 67° |
| 2026-04-29 23:29 | 30.30717 | -89.36544 | 11027 ft | 284 kts | 67° |
| 2026-04-29 23:30 | 30.31453 | -89.34421 | 11025 ft | 284 kts | 67° |
| 2026-04-29 23:30 | 30.32187 | -89.32301 | 11026 ft | 284 kts | 67° |
| 2026-04-29 23:30 | 30.32921 | -89.30180 | 11022 ft | 284 kts | 67° |
| 2026-04-29 23:30 | 30.33655 | -89.28058 | 11023 ft | 284 kts | 67° |
| 2026-04-29 23:31 | 30.34379 | -89.25966 | 11023 ft | 284 kts | 67° |
| 2026-04-29 23:31 | 30.35112 | -89.23843 | 11023 ft | 284 kts | 67° |
| 2026-04-29 23:31 | 30.35846 | -89.21720 | 11025 ft | 284 kts | 67° |
| 2026-04-29 23:31 | 30.36580 | -89.19594 | 11028 ft | 284 kts | 67° |
| 2026-04-29 23:32 | 30.37312 | -89.17471 | 11026 ft | 284 kts | 67° |
| 2026-04-29 23:32 | 30.38044 | -89.15348 | 11026 ft | 284 kts | 67° |
| 2026-04-29 23:32 | 30.38777 | -89.13219 | 11027 ft | 285 kts | 67° |
| 2026-04-29 23:32 | 30.39511 | -89.11087 | 11027 ft | 284 kts | 67° |
| 2026-04-29 23:33 | 30.40232 | -89.08994 | 11027 ft | 284 kts | 67° |
| 2026-04-29 23:33 | 30.41018 | -89.06900 | 11026 ft | 283 kts | 62° |
| 2026-04-29 23:33 | 30.41935 | -89.04878 | 11026 ft | 283 kts | 60° |
| 2026-04-29 23:33 | 30.42854 | -89.02857 | 11025 ft | 284 kts | 61° |
| 2026-04-29 23:34 | 30.43762 | -89.00825 | 11029 ft | 284 kts | 61° |
| 2026-04-29 23:34 | 30.44670 | -88.98788 | 11035 ft | 284 kts | 61° |
| 2026-04-29 23:34 | 30.45580 | -88.96757 | 11038 ft | 284 kts | 61° |
| 2026-04-29 23:34 | 30.46493 | -88.94720 | 11038 ft | 284 kts | 61° |
| 2026-04-29 23:35 | 30.47391 | -88.92713 | 11035 ft | 285 kts | 61° |
| 2026-04-29 23:35 | 30.48302 | -88.90675 | 11036 ft | 285 kts | 61° |
| 2026-04-29 23:35 | 30.49213 | -88.88637 | 11038 ft | 285 kts | 61° |
| 2026-04-29 23:35 | 30.50122 | -88.86601 | 11034 ft | 285 kts | 61° |
| 2026-04-29 23:36 | 30.51034 | -88.84559 | 11033 ft | 285 kts | 61° |
| 2026-04-29 23:36 | 30.51946 | -88.82515 | 11032 ft | 285 kts | 61° |
| 2026-04-29 23:36 | 30.52855 | -88.80476 | 11033 ft | 285 kts | 61° |
| 2026-04-29 23:36 | 30.53766 | -88.78433 | 11028 ft | 285 kts | 61° |
| 2026-04-29 23:37 | 30.54676 | -88.76389 | 11023 ft | 285 kts | 61° |
| 2026-04-29 23:37 | 30.55573 | -88.74375 | 11030 ft | 285 kts | 61° |
| 2026-04-29 23:37 | 30.56484 | -88.72326 | 11033 ft | 286 kts | 61° |
| 2026-04-29 23:37 | 30.57396 | -88.70278 | 11035 ft | 286 kts | 61° |
| 2026-04-29 23:38 | 30.58306 | -88.68229 | 11035 ft | 286 kts | 61° |
| 2026-04-29 23:38 | 30.59218 | -88.66179 | 11038 ft | 286 kts | 62° |
| 2026-04-29 23:38 | 30.60129 | -88.64126 | 11034 ft | 286 kts | 62° |
| 2026-04-29 23:38 | 30.61038 | -88.62077 | 11036 ft | 286 kts | 61° |
| 2026-04-29 23:39 | 30.61950 | -88.60021 | 11035 ft | 286 kts | 61° |
| 2026-04-29 23:39 | 30.62849 | -88.57993 | 11035 ft | 286 kts | 61° |
| 2026-04-29 23:39 | 30.63760 | -88.55937 | 11033 ft | 286 kts | 62° |
| 2026-04-29 23:39 | 30.64669 | -88.53883 | 11038 ft | 286 kts | 62° |
| 2026-04-29 23:40 | 30.65580 | -88.51826 | 11035 ft | 286 kts | 61° |
| 2026-04-29 23:40 | 30.66489 | -88.49771 | 11032 ft | 286 kts | 62° |
| 2026-04-29 23:40 | 30.67398 | -88.47715 | 11046 ft | 286 kts | 61° |
| 2026-04-29 23:40 | 30.68308 | -88.45656 | 11048 ft | 286 kts | 62° |
| 2026-04-29 23:41 | 30.69219 | -88.43594 | 11050 ft | 286 kts | 62° |
| 2026-04-29 23:41 | 30.70126 | -88.41539 | 11052 ft | 286 kts | 62° |
| 2026-04-29 23:41 | 30.71034 | -88.39479 | 11059 ft | 286 kts | 62° |
| 2026-04-29 23:41 | 30.71928 | -88.37448 | 11062 ft | 286 kts | 62° |
| 2026-04-29 23:42 | 30.72589 | -88.35277 | 11056 ft | 286 kts | 79° |
| 2026-04-29 23:42 | 30.72797 | -88.32981 | 11058 ft | 285 kts | 87° |
| 2026-04-29 23:42 | 30.72941 | -88.30687 | 11059 ft | 285 kts | 86° |
| 2026-04-29 23:42 | 30.73094 | -88.28391 | 11059 ft | 286 kts | 86° |
| 2026-04-29 23:43 | 30.73247 | -88.26086 | 11063 ft | 286 kts | 87° |
| 2026-04-29 23:43 | 30.73397 | -88.23782 | 11065 ft | 286 kts | 86° |
| 2026-04-29 23:43 | 30.73546 | -88.21484 | 11067 ft | 285 kts | 87° |
| 2026-04-29 23:43 | 30.73694 | -88.19210 | 11061 ft | 285 kts | 87° |
| 2026-04-29 23:44 | 30.73843 | -88.16911 | 11064 ft | 286 kts | 87° |
| 2026-04-29 23:44 | 30.73990 | -88.14613 | 11062 ft | 286 kts | 86° |
| 2026-04-29 23:44 | 30.74140 | -88.12307 | 11057 ft | 285 kts | 87° |
| 2026-04-29 23:44 | 30.74287 | -88.10016 | 11058 ft | 284 kts | 87° |
| 2026-04-29 23:45 | 30.74434 | -88.07721 | 11053 ft | 285 kts | 87° |
| 2026-04-29 23:45 | 30.74580 | -88.05430 | 11052 ft | 285 kts | 87° |
| 2026-04-29 23:45 | 30.74727 | -88.03131 | 11054 ft | 285 kts | 87° |
| 2026-04-29 23:45 | 30.74872 | -88.00840 | 11051 ft | 284 kts | 87° |
| 2026-04-29 23:46 | 30.75017 | -87.98554 | 11051 ft | 284 kts | 87° |
| 2026-04-29 23:46 | 30.75160 | -87.96286 | 11048 ft | 284 kts | 87° |
| 2026-04-29 23:46 | 30.75305 | -87.93996 | 11047 ft | 284 kts | 87° |
| 2026-04-29 23:46 | 30.75449 | -87.91704 | 11043 ft | 284 kts | 87° |
| 2026-04-29 23:47 | 30.75592 | -87.89410 | 11042 ft | 284 kts | 87° |
| 2026-04-29 23:47 | 30.75736 | -87.87118 | 11042 ft | 284 kts | 87° |
| 2026-04-29 23:47 | 30.75878 | -87.84829 | 11039 ft | 284 kts | 87° |
| 2026-04-29 23:47 | 30.76020 | -87.82536 | 11030 ft | 284 kts | 87° |
| 2026-04-29 23:48 | 30.76162 | -87.80250 | 11031 ft | 284 kts | 87° |
| 2026-04-29 23:48 | 30.76301 | -87.77994 | 11026 ft | 284 kts | 87° |
| 2026-04-29 23:48 | 30.76442 | -87.75707 | 11019 ft | 284 kts | 87° |
| 2026-04-29 23:48 | 30.76583 | -87.73417 | 11017 ft | 284 kts | 87° |
| 2026-04-29 23:49 | 30.76723 | -87.71132 | 11011 ft | 283 kts | 87° |
| 2026-04-29 23:49 | 30.76863 | -87.68848 | 11006 ft | 284 kts | 87° |
| 2026-04-29 23:49 | 30.77003 | -87.66546 | 10838 ft | 288 kts | 87° |
| 2026-04-29 23:49 | 30.77143 | -87.64234 | 10554 ft | 284 kts | 87° |
| 2026-04-29 23:50 | 30.77279 | -87.61981 | 10279 ft | 282 kts | 87° |
| 2026-04-29 23:50 | 30.77416 | -87.59718 | 9999 ft | 280 kts | 87° |
| 2026-04-29 23:50 | 30.77681 | -87.55309 | 9393 ft | 269 kts | 87° |
| 2026-04-29 23:51 | 30.77810 | -87.53152 | 9093 ft | 266 kts | 87° |
| 2026-04-29 23:51 | 30.77937 | -87.51018 | 8790 ft | 264 kts | 87° |
| 2026-04-29 23:51 | 30.78064 | -87.48894 | 8489 ft | 262 kts | 87° |
| 2026-04-29 23:51 | 30.78189 | -87.46783 | 8192 ft | 260 kts | 87° |
| 2026-04-29 23:52 | 30.78313 | -87.44694 | 7902 ft | 259 kts | 87° |
| 2026-04-29 23:52 | 30.78436 | -87.42609 | 7612 ft | 257 kts | 87° |
| 2026-04-29 23:52 | 30.78556 | -87.40565 | 7333 ft | 255 kts | 87° |
| 2026-04-29 23:52 | 30.78674 | -87.38555 | 7048 ft | 245 kts | 87° |
| 2026-04-29 23:53 | 30.78789 | -87.36595 | 6766 ft | 235 kts | 87° |
| 2026-04-29 23:53 | 30.78897 | -87.34764 | 6413 ft | 226 kts | 87° |
| 2026-04-29 23:53 | 30.78998 | -87.33017 | 5906 ft | 211 kts | 87° |
| 2026-04-29 23:53 | 30.79095 | -87.31321 | 5409 ft | 210 kts | 88° |
| 2026-04-29 23:54 | 30.78939 | -87.29725 | 5055 ft | 183 kts | 109° |
| 2026-04-29 23:54 | 30.78428 | -87.28462 | 5002 ft | 166 kts | 126° |
| 2026-04-29 23:54 | 30.77696 | -87.27494 | 5012 ft | 159 kts | 143° |
| 2026-04-29 23:54 | 30.76771 | -87.26798 | 5012 ft | 156 kts | 159° |
| 2026-04-29 23:55 | 30.75763 | -87.26431 | 5023 ft | 153 kts | 172° |
| 2026-04-29 23:55 | 30.74721 | -87.26157 | 5022 ft | 154 kts | 170° |
| 2026-04-29 23:55 | 30.73677 | -87.25874 | 4992 ft | 156 kts | 170° |
| 2026-04-29 23:55 | 30.72596 | -87.25584 | 4807 ft | 162 kts | 171° |
| 2026-04-29 23:56 | 30.71487 | -87.25288 | 4594 ft | 163 kts | 171° |
| 2026-04-29 23:56 | 30.70382 | -87.24992 | 4383 ft | 163 kts | 171° |
| 2026-04-29 23:56 | 30.69279 | -87.24697 | 4169 ft | 162 kts | 170° |
| 2026-04-29 23:56 | 30.68201 | -87.24407 | 3962 ft | 160 kts | 171° |
| 2026-04-29 23:57 | 30.67117 | -87.24116 | 3758 ft | 159 kts | 172° |
| 2026-04-29 23:57 | 30.66042 | -87.23827 | 3531 ft | 159 kts | 171° |
| 2026-04-29 23:57 | 30.64980 | -87.23542 | 3364 ft | 156 kts | 171° |
| 2026-04-29 23:57 | 30.63915 | -87.23257 | 3148 ft | 157 kts | 171° |
| 2026-04-29 23:58 | 30.62860 | -87.22974 | 2957 ft | 154 kts | 172° |
| 2026-04-29 23:58 | 30.61817 | -87.22694 | 2762 ft | 154 kts | 173° |
| 2026-04-29 23:58 | 30.60774 | -87.22415 | 2563 ft | 154 kts | 172° |
| 2026-04-29 23:58 | 30.59739 | -87.22136 | 2364 ft | 149 kts | 172° |
| 2026-04-29 23:59 | 30.58830 | -87.21886 | 2194 ft | 130 kts | 172° |
| 2026-04-29 23:59 | 30.57964 | -87.21650 | 2027 ft | 125 kts | 172° |
| 2026-04-29 23:59 | 30.57125 | -87.21422 | 1868 ft | 123 kts | 173° |
| 2026-04-29 23:59 | 30.56291 | -87.21203 | 1707 ft | 123 kts | 173° |
| 2026-04-30 00:00 | 30.55463 | -87.20979 | 1550 ft | 122 kts | 173° |
| 2026-04-30 00:00 | 30.54643 | -87.20761 | 1396 ft | 121 kts | 173° |
| 2026-04-30 00:00 | 30.53820 | -87.20543 | 1234 ft | 122 kts | 171° |
| 2026-04-30 00:00 | 30.52997 | -87.20321 | 1080 ft | 120 kts | 172° |
| 2026-04-30 00:01 | 30.52185 | -87.20104 | 926 ft | 119 kts | 169° |
| 2026-04-30 00:01 | 30.51392 | -87.19895 | 779 ft | 116 kts | 171° |
| 2026-04-30 00:01 | 30.50622 | -87.19686 | 634 ft | 114 kts | 170° |
| 2026-04-30 00:01 | 30.49851 | -87.19485 | 479 ft | 109 kts | 171° |
| 2026-04-30 00:02 | 30.49106 | -87.19280 | 308 ft | 114 kts | 172° |
| 2026-04-30 00:02 | 30.48367 | -87.19087 | 191 ft | 102 kts | 173° |
| 2026-04-30 00:02 | 30.47755 | -87.18918 | 115 ft | 76 kts | 165° |
| 2026-04-30 00:02 | 30.47368 | -87.18818 | 108 ft | 37 kts | 162° |
| 2026-04-30 00:03 | 30.47197 | -87.18767 | 108 ft | 8 kts | 122° |
| 2026-04-30 00:03 | 30.47192 | -87.18673 | 109 ft | 3 kts | 81° |
| 2026-04-30 00:03 | 30.47198 | -87.18632 | 110 ft | 10 kts | 77° |
| 2026-04-30 00:03 | 30.47210 | -87.18599 | 111 ft | 10 kts | 40° |
| 2026-04-30 00:04 | 30.47217 | -87.18532 | 113 ft | 15 kts | 88° |
| 2026-04-30 00:04 | 30.47170 | -87.18461 | 114 ft | 17 kts | 164° |
| 2026-04-30 00:04 | 30.47024 | -87.18426 | 111 ft | 10 kts | 167° |
| 2026-04-30 00:04 | 30.46965 | -87.18390 | 111 ft | 13 kts | 96° |
| 2026-04-30 00:05 | 30.46984 | -87.18280 | 113 ft | 10 kts | 77° |
| 2026-04-30 00:05 | 30.46954 | -87.18204 | 112 ft | 16 kts | 179° |
| 2026-04-30 00:05 | 30.46936 | -87.18235 | 112 ft | 3 kts | 261° |
| 2026-04-30 00:05 | 30.46936 | -87.18236 | 112 ft | 0 kts | 261° |
| 2026-04-30 00:25 | 30.46935 | -87.18242 | 112 ft | 3 kts | 260° |
| 2026-04-30 00:26 | 30.46864 | -87.18247 | 111 ft | 21 kts | 166° |
| 2026-04-30 00:26 | 30.46735 | -87.18234 | 109 ft | 13 kts | 257° |
| 2026-04-30 00:26 | 30.46703 | -87.18397 | 109 ft | 28 kts | 256° |
| 2026-04-30 00:26 | 30.46661 | -87.18609 | 108 ft | 8 kts | 278° |
| 2026-04-30 00:27 | 30.46665 | -87.18617 | 108 ft | 0 kts | 321° |
| 2026-04-30 00:27 | 30.46876 | -87.18688 | 110 ft | 70 kts | 347° |
| 2026-04-30 00:27 | 30.47517 | -87.18843 | 297 ft | 105 kts | 347° |
| 2026-04-30 00:27 | 30.47968 | -87.19128 | 581 ft | 108 kts | 298° |